Time;durP1;ratioP1;P1;durP2;ratioP2;P2;SDS_P1;SDS_P2;PMS_P1;PMS_P2;Temp;Humidity;BMP_temperature;BMP_pressure;BME280_temperature;BME280_humidity;BME280_pressure;Samples;Min_cycle;Max_cycle;Signal;HPM_P1;HPM_P2
2022/08/28 00:00:41;;;;;;;0.10;0.10;;;;;;;;;;6225878;22;20455;-92
2022/08/28 00:03:09;;;;;;;0.10;0.10;;;;;;;;;;6226293;22;20016;-91
2022/08/28 00:05:35;;;;;;;0.10;0.10;;;;;;;;;;6225485;22;20020;-92
2022/08/28 00:08:01;;;;;;;0.10;0.10;;;;;;;;;;6225973;22;20012;-92
2022/08/28 00:10:27;;;;;;;0.00;0.00;;;;;;;;;;6226231;22;20103;-93
2022/08/28 00:12:56;;;;;;;0.20;0.20;;;;;;;;;;6226238;22;20019;-93
2022/08/28 00:15:31;;;;;;;0.17;0.17;;;;;;;;;;6226319;22;20043;-91
2022/08/28 00:17:57;;;;;;;0.10;0.10;;;;;;;;;;6226231;22;20346;-92
2022/08/28 00:20:24;;;;;;;0.10;0.10;;;;;;;;;;6225971;22;20019;-92
2022/08/28 00:22:51;;;;;;;0.20;0.20;;;;;;;;;;6226350;22;20031;-92
2022/08/28 00:25:18;;;;;;;0.10;0.10;;;;;;;;;;6225892;22;20011;-91
2022/08/28 00:27:53;;;;;;;0.13;0.13;;;;;;;;;;6225913;22;20016;-92
2022/08/28 00:30:19;;;;;;;;;;;;;;;;;;6226200;22;20096;-91
2022/08/28 00:32:45;;;;;;;0.10;0.10;;;;;;;;;;6225303;22;19918;-91
2022/08/28 00:35:14;;;;;;;0.20;0.20;;;;;;;;;;6225979;22;20099;-92
2022/08/28 00:37:41;;;;;;;0.28;0.28;;;;;;;;;;6225467;22;20020;-92
2022/08/28 00:40:07;;;;;;;0.10;0.10;;;;;;;;;;6225448;22;20055;-91
2022/08/28 00:42:35;;;;;;;0.20;0.20;;;;;;;;;;6225409;22;20019;-91
2022/08/28 00:45:01;;;;;;;0.10;0.10;;;;;;;;;;6225531;22;20069;-91
2022/08/28 00:47:27;;;;;;;0.13;0.13;;;;;;;;;;6225237;22;20016;-91
2022/08/28 00:49:55;;;;;;;0.20;0.20;;;;;;;;;;6225146;22;20030;-91
2022/08/28 00:52:22;;;;;;;0.20;0.20;;;;;;;;;;6225512;22;20464;-91
2022/08/28 00:54:53;;;;;;;0.20;0.20;;;;;;;;;;6225485;22;20016;-92
2022/08/28 00:57:21;;;;;;;0.17;0.17;;;;;;;;;;6225375;22;20020;-92
2022/08/28 00:59:47;;;;;;;0.20;0.20;;;;;;;;;;6225450;22;20016;-91
2022/08/28 01:02:13;;;;;;;0.13;0.13;;;;;;;;;;6225932;22;20011;-91
2022/08/28 01:04:39;;;;;;;0.20;0.20;;;;;;;;;;6225426;22;20515;-92
2022/08/28 01:07:07;;;;;;;0.28;0.28;;;;;;;;;;6225202;22;20046;-92
2022/08/28 01:09:34;;;;;;;0.20;0.20;;;;;;;;;;6225566;22;20395;-91
2022/08/28 01:12:05;;;;;;;0.20;0.20;;;;;;;;;;6225443;22;20015;-91
2022/08/28 01:14:33;;;;;;;0.10;0.10;;;;;;;;;;6250690;22;20105;-92
2022/08/28 01:16:59;;;;;;;0.20;0.20;;;;;;;;;;6225215;22;20020;-91
2022/08/28 01:19:31;;;;;;;0.20;0.20;;;;;;;;;;6224861;22;20012;-91
2022/08/28 01:22:01;;;;;;;0.10;0.10;;;;;;;;;;6225485;22;20016;-91
2022/08/28 01:24:28;;;;;;;0.20;0.20;;;;;;;;;;6225883;22;20019;-91
2022/08/28 01:26:54;;;;;;;0.20;0.20;;;;;;;;;;6222703;22;20019;-92
2022/08/28 01:29:20;;;;;;;0.20;0.20;;;;;;;;;;6224994;22;20013;-91
2022/08/28 01:31:47;;;;;;;0.30;0.30;;;;;;;;;;6225271;22;20015;-90
2022/08/28 01:34:13;;;;;;;0.20;0.20;;;;;;;;;;6225092;22;20449;-91
2022/08/28 01:36:40;;;;;;;0.10;0.10;;;;;;;;;;6224486;22;20019;-91
2022/08/28 01:39:14;;;;;;;0.20;0.20;;;;;;;;;;6225109;22;20445;-90
2022/08/28 01:41:42;;;;;;;0.20;0.20;;;;;;;;;;6224958;22;20043;-90
2022/08/28 01:44:08;;;;;;;0.10;0.10;;;;;;;;;;6225074;22;20011;-91
2022/08/28 01:46:34;;;;;;;0.10;0.10;;;;;;;;;;6224858;22;20019;-91
2022/08/28 01:49:00;;;;;;;0.10;0.10;;;;;;;;;;6224975;22;20011;-91
2022/08/28 01:51:26;;;;;;;0.20;0.20;;;;;;;;;;6225603;22;20020;-90
2022/08/28 01:53:52;;;;;;;0.20;0.20;;;;;;;;;;6225354;22;20016;-91
2022/08/28 01:56:18;;;;;;;0.10;0.10;;;;;;;;;;6224920;22;20136;-91
2022/08/28 01:58:46;;;;;;;0.20;0.20;;;;;;;;;;6225481;22;20081;-90
2022/08/28 02:01:14;;;;;;;0.15;0.15;;;;;;;;;;6225553;22;20419;-91
2022/08/28 02:03:41;;;;;;;0.10;0.10;;;;;;;;;;6225310;22;20054;-91
2022/08/28 02:06:08;;;;;;;0.20;0.20;;;;;;;;;;6225085;22;20094;-91
2022/08/28 02:08:35;;;;;;;0.17;0.17;;;;;;;;;;6225075;22;20016;-91
2022/08/28 02:11:01;;;;;;;0.10;0.10;;;;;;;;;;6225453;22;20015;-91
2022/08/28 02:13:28;;;;;;;0.10;0.10;;;;;;;;;;6225201;22;20446;-91
2022/08/28 02:15:54;;;;;;;0.10;0.10;;;;;;;;;;6224887;22;20465;-90
2022/08/28 02:18:20;;;;;;;0.30;0.30;;;;;;;;;;6225722;22;20026;-91
2022/08/28 02:20:46;;;;;;;0.20;0.20;;;;;;;;;;6225782;22;20020;-90
2022/08/28 02:23:12;;;;;;;0.17;0.17;;;;;;;;;;6225031;22;20019;-90
2022/08/28 02:25:38;;;;;;;0.10;0.10;;;;;;;;;;6224757;22;20019;-90
2022/08/28 02:28:04;;;;;;;0.10;0.10;;;;;;;;;;6225641;22;20019;-90
2022/08/28 02:30:30;;;;;;;0.20;0.20;;;;;;;;;;6225207;22;20441;-90
2022/08/28 02:32:56;;;;;;;0.10;0.10;;;;;;;;;;6225049;22;20022;-91
2022/08/28 02:35:23;;;;;;;0.17;0.17;;;;;;;;;;6224945;22;20445;-91
2022/08/28 02:37:50;;;;;;;0.20;0.20;;;;;;;;;;6224943;22;20059;-91
2022/08/28 02:40:17;;;;;;;0.20;0.20;;;;;;;;;;6225098;22;20020;-90
2022/08/28 02:42:44;;;;;;;0.10;0.10;;;;;;;;;;6225063;22;20090;-91
2022/08/28 02:45:11;;;;;;;0.20;0.20;;;;;;;;;;6225330;22;20016;-91
2022/08/28 02:47:38;;;;;;;0.20;0.20;;;;;;;;;;6225022;22;20054;-90
2022/08/28 02:50:06;;;;;;;0.10;0.10;;;;;;;;;;6225403;22;20022;-91
2022/08/28 02:52:32;;;;;;;0.20;0.20;;;;;;;;;;6225152;22;20058;-90
2022/08/28 02:54:58;;;;;;;0.28;0.28;;;;;;;;;;6227068;22;20020;-91
2022/08/28 02:57:25;;;;;;;0.20;0.20;;;;;;;;;;6226704;22;20071;-91
2022/08/28 02:59:51;;;;;;;0.20;0.20;;;;;;;;;;6226314;22;20019;-91
2022/08/28 03:02:21;;;;;;;0.10;0.10;;;;;;;;;;6227007;22;20121;-90
2022/08/28 03:04:47;;;;;;;0.10;0.10;;;;;;;;;;6226335;22;20011;-90
2022/08/28 03:07:15;;;;;;;0.20;0.20;;;;;;;;;;6251635;22;20345;-90
2022/08/28 03:09:42;;;;;;;0.10;0.10;;;;;;;;;;6226661;22;20103;-90
2022/08/28 03:12:12;;;;;;;0.10;0.10;;;;;;;;;;6226824;22;20369;-90
2022/08/28 03:14:38;;;;;;;0.10;0.10;;;;;;;;;;6226847;22;20016;-91
2022/08/28 03:17:06;;;;;;;0.10;0.10;;;;;;;;;;6226707;22;20027;-91
2022/08/28 03:19:32;;;;;;;0.20;0.20;;;;;;;;;;6226671;22;20022;-91
2022/08/28 03:21:58;;;;;;;0.10;0.10;;;;;;;;;;6227077;22;20450;-91
2022/08/28 03:24:24;;;;;;;0.13;0.13;;;;;;;;;;6226833;22;20376;-91
2022/08/28 03:26:50;;;;;;;0.13;0.13;;;;;;;;;;6226173;22;20496;-90
2022/08/28 03:29:16;;;;;;;0.20;0.20;;;;;;;;;;6201860;22;20054;-90
2022/08/28 03:31:42;;;;;;;0.10;0.10;;;;;;;;;;6226922;22;20020;-90
2022/08/28 03:34:09;;;;;;;0.20;0.20;;;;;;;;;;6226313;22;20462;-90
2022/08/28 03:36:35;;;;;;;0.20;0.20;;;;;;;;;;6226759;22;20024;-90
2022/08/28 03:39:02;;;;;;;0.10;0.10;;;;;;;;;;6226473;22;20095;-91
2022/08/28 03:41:30;;;;;;;0.10;0.10;;;;;;;;;;6226641;22;20020;-90
2022/08/28 03:43:57;;;;;;;0.10;0.10;;;;;;;;;;6226138;22;20047;-90
2022/08/28 03:46:24;;;;;;;0.10;0.10;;;;;;;;;;6226059;22;20043;-90
2022/08/28 03:48:51;;;;;;;0.13;0.13;;;;;;;;;;6226599;22;20046;-90
2022/08/28 03:51:19;;;;;;;0.10;0.10;;;;;;;;;;6226965;22;20015;-90
2022/08/28 03:53:46;;;;;;;0.10;0.10;;;;;;;;;;6226473;22;20460;-90
2022/08/28 03:56:15;;;;;;;0.28;0.28;;;;;;;;;;6225757;22;20020;-90
2022/08/28 03:58:42;;;;;;;0.20;0.20;;;;;;;;;;6225950;22;20023;-89
2022/08/28 04:01:08;;;;;;;0.20;0.20;;;;;;;;;;6201251;22;20099;-90
2022/08/28 04:03:35;;;;;;;0.15;0.15;;;;;;;;;;6225961;22;20015;-90
2022/08/28 04:06:01;;;;;;;0.10;0.10;;;;;;;;;;6225403;22;20099;-89
2022/08/28 04:08:28;;;;;;;0.10;0.10;;;;;;;;;;6226360;22;20011;-90
2022/08/28 04:10:54;;;;;;;0.20;0.20;;;;;;;;;;6226448;22;20050;-90
2022/08/28 04:13:21;;;;;;;0.10;0.10;;;;;;;;;;6226293;22;20015;-90
2022/08/28 04:15:55;;;;;;;0.10;0.10;;;;;;;;;;6225633;22;20019;-89
2022/08/28 04:18:21;;;;;;;0.13;0.13;;;;;;;;;;6201743;22;20511;-90
2022/08/28 04:20:57;;;;;;;0.28;0.28;;;;;;;;;;6226018;22;20020;-89
2022/08/28 04:23:23;;;;;;;0.10;0.10;;;;;;;;;;6226207;22;20039;-90
2022/08/28 04:25:49;;;;;;;0.20;0.20;;;;;;;;;;6225843;22;20380;-90
2022/08/28 04:28:15;;;;;;;0.10;0.10;;;;;;;;;;6226156;22;20450;-90
2022/08/28 04:30:42;;;;;;;0.10;0.10;;;;;;;;;;6225768;22;20073;-90
2022/08/28 04:33:09;;;;;;;0.10;0.10;;;;;;;;;;6226456;22;20507;-90
2022/08/28 04:35:35;;;;;;;0.10;0.10;;;;;;;;;;6225860;22;20568;-90
2022/08/28 04:38:01;;;;;;;0.10;0.10;;;;;;;;;;6225960;22;20027;-90
2022/08/28 04:40:27;;;;;;;0.10;0.10;;;;;;;;;;6225834;22;20020;-90
2022/08/28 04:42:53;;;;;;;0.10;0.10;;;;;;;;;;6226280;22;20016;-90
2022/08/28 04:45:20;;;;;;;0.10;0.10;;;;;;;;;;6226031;22;20015;-91
2022/08/28 04:47:46;;;;;;;0.20;0.20;;;;;;;;;;6225242;22;20016;-89
2022/08/28 04:50:14;;;;;;;0.20;0.20;;;;;;;;;;6251234;22;20019;-89
2022/08/28 04:52:42;;;;;;;0.20;0.20;;;;;;;;;;6226032;22;20015;-89
2022/08/28 04:55:09;;;;;;;0.10;0.10;;;;;;;;;;6225693;22;20027;-89
2022/08/28 04:57:35;;;;;;;0.10;0.10;;;;;;;;;;6225453;22;20019;-89
2022/08/28 05:00:05;;;;;;;0.10;0.10;;;;;;;;;;6225778;22;20016;-90
2022/08/28 05:02:31;;;;;;;0.10;0.10;;;;;;;;;;6225588;22;20051;-90
2022/08/28 05:04:57;;;;;;;0.30;0.30;;;;;;;;;;6226090;22;20015;-90
2022/08/28 05:07:24;;;;;;;0.10;0.10;;;;;;;;;;6225423;22;20434;-90
2022/08/28 05:09:53;;;;;;;0.30;0.30;;;;;;;;;;6250685;22;20020;-90
2022/08/28 05:12:19;;;;;;;0.30;0.30;;;;;;;;;;6225748;22;20023;-90
2022/08/28 05:14:46;;;;;;;0.17;0.17;;;;;;;;;;6225971;22;20016;-90
2022/08/28 05:17:13;;;;;;;0.10;0.10;;;;;;;;;;6225214;22;20020;-90
2022/08/28 05:19:39;;;;;;;0.20;0.20;;;;;;;;;;6225315;22;20488;-90
2022/08/28 05:22:05;;;;;;;0.10;0.10;;;;;;;;;;6225289;22;20015;-91
2022/08/28 05:24:31;;;;;;;0.15;0.15;;;;;;;;;;6225895;22;20015;-90
2022/08/28 05:26:58;;;;;;;0.10;0.10;;;;;;;;;;6225150;22;20019;-89
2022/08/28 05:29:24;;;;;;;0.10;0.10;;;;;;;;;;6225256;22;20012;-89
2022/08/28 05:31:50;;;;;;;0.10;0.10;;;;;;;;;;6225435;22;20020;-90
2022/08/28 05:34:16;;;;;;;0.00;0.00;;;;;;;;;;6225441;22;20098;-89
2022/08/28 05:36:42;;;;;;;0.20;0.20;;;;;;;;;;6224794;22;20520;-90
2022/08/28 05:39:09;;;;;;;0.10;0.10;;;;;;;;;;6225495;22;20497;-90
2022/08/28 05:41:37;;;;;;;0.20;0.20;;;;;;;;;;6225312;22;20015;-89
2022/08/28 05:44:04;;;;;;;0.10;0.10;;;;;;;;;;6226041;22;20051;-89
2022/08/28 05:46:30;;;;;;;0.10;0.10;;;;;;;;;;6224743;22;20346;-89
2022/08/28 05:48:57;;;;;;;0.10;0.10;;;;;;;;;;6225271;22;20016;-89
2022/08/28 05:51:25;;;;;;;0.20;0.20;;;;;;;;;;6225324;22;20016;-90
2022/08/28 05:53:52;;;;;;;0.20;0.20;;;;;;;;;;6225584;22;20022;-90
2022/08/28 05:56:21;;;;;;;0.20;0.20;;;;;;;;;;6224569;22;20024;-89
2022/08/28 05:58:47;;;;;;;0.10;0.10;;;;;;;;;;6225204;22;20023;-90
2022/08/28 06:01:26;;;;;;;0.10;0.10;;;;;;;;;;6225375;22;20035;-90
2022/08/28 06:03:57;;;;;;;0.10;0.10;;;;;;;;;;6225396;22;20012;-90
2022/08/28 06:06:24;;;;;;;0.20;0.20;;;;;;;;;;6225561;22;20023;-90
2022/08/28 06:08:51;;;;;;;0.10;0.10;;;;;;;;;;6225757;22;20461;-90
2022/08/28 06:11:21;;;;;;;0.20;0.20;;;;;;;;;;6225259;22;20015;-90
2022/08/28 06:13:47;;;;;;;0.20;0.20;;;;;;;;;;6225175;22;20015;-91
2022/08/28 06:16:13;;;;;;;0.10;0.10;;;;;;;;;;6224748;22;20019;-91
2022/08/28 06:18:45;;;;;;;0.10;0.10;;;;;;;;;;6225652;22;20019;-90
2022/08/28 06:21:11;;;;;;;0.10;0.10;;;;;;;;;;6250784;22;20095;-90
2022/08/28 06:23:38;;;;;;;0.10;0.10;;;;;;;;;;6225287;22;20022;-90
2022/08/28 06:26:05;;;;;;;0.20;0.20;;;;;;;;;;6224558;22;20008;-91
2022/08/28 06:28:32;;;;;;;0.10;0.10;;;;;;;;;;6226723;22;20015;-90
2022/08/28 06:31:01;;;;;;;0.20;0.20;;;;;;;;;;6227242;22;20020;-90
2022/08/28 06:33:27;;;;;;;0.10;0.10;;;;;;;;;;6227012;22;20016;-91
2022/08/28 06:35:54;;;;;;;0.10;0.10;;;;;;;;;;6226748;22;20027;-91
2022/08/28 06:38:21;;;;;;;0.10;0.10;;;;;;;;;;6227672;22;20038;-90
2022/08/28 06:40:49;;;;;;;0.10;0.10;;;;;;;;;;6227255;22;20346;-91
2022/08/28 06:43:15;;;;;;;0.10;0.10;;;;;;;;;;6227118;22;20015;-91
2022/08/28 06:45:42;;;;;;;0.10;0.10;;;;;;;;;;6226602;22;20020;-90
2022/08/28 06:48:09;;;;;;;0.20;0.20;;;;;;;;;;6227024;22;20046;-90
2022/08/28 06:50:38;;;;;;;0.10;0.10;;;;;;;;;;6227034;22;20023;-90
2022/08/28 06:53:04;;;;;;;0.10;0.10;;;;;;;;;;6226954;22;20020;-89
2022/08/28 06:55:30;;;;;;;0.10;0.10;;;;;;;;;;6226334;22;20020;-89
2022/08/28 06:57:56;;;;;;;0.00;0.00;;;;;;;;;;6226829;22;20099;-90
2022/08/28 07:00:22;;;;;;;0.08;0.08;;;;;;;;;;6226378;22;20430;-90
2022/08/28 07:02:48;;;;;;;0.10;0.10;;;;;;;;;;6227086;22;20103;-90
2022/08/28 07:05:14;;;;;;;0.10;0.10;;;;;;;;;;6226478;22;20016;-90
2022/08/28 07:07:40;;;;;;;0.10;0.10;;;;;;;;;;6226336;22;20016;-90
2022/08/28 07:10:07;;;;;;;0.20;0.20;;;;;;;;;;6226601;22;20015;-90
2022/08/28 07:12:33;;;;;;;0.10;0.10;;;;;;;;;;6226910;22;20015;-91
2022/08/28 07:14:59;;;;;;;0.15;0.15;;;;;;;;;;6252174;22;20374;-91
2022/08/28 07:17:25;;;;;;;0.20;0.20;;;;;;;;;;6226312;22;20065;-90
2022/08/28 07:19:51;;;;;;;0.10;0.10;;;;;;;;;;6226773;22;20016;-91
2022/08/28 07:22:17;;;;;;;0.10;0.10;;;;;;;;;;6226794;22;20467;-90
2022/08/28 07:24:43;;;;;;;0.20;0.20;;;;;;;;;;6226698;22;20011;-89
2022/08/28 07:27:09;;;;;;;0.10;0.10;;;;;;;;;;6226218;22;20055;-90
2022/08/28 07:29:35;;;;;;;0.10;0.10;;;;;;;;;;6226938;22;20037;-89
2022/08/28 07:32:02;;;;;;;0.10;0.10;;;;;;;;;;6226679;22;20438;-90
2022/08/28 07:34:28;;;;;;;0.10;0.10;;;;;;;;;;6226777;22;20012;-90
2022/08/28 07:36:56;;;;;;;0.20;0.20;;;;;;;;;;6225780;22;20016;-90
2022/08/28 07:39:25;;;;;;;0.00;0.00;;;;;;;;;;6226185;22;20016;-90
2022/08/28 07:41:51;;;;;;;0.05;0.05;;;;;;;;;;6226366;22;20011;-91
2022/08/28 07:47:04;;;;;;;0.10;0.10;;;;;;;;;;6251161;22;20445;-92
2022/08/28 07:49:32;;;;;;;0.10;0.10;;;;;;;;;;6226363;22;20016;-90
2022/08/28 07:51:58;;;;;;;0.00;0.00;;;;;;;;;;6226610;22;20020;-91
2022/08/28 07:54:24;;;;;;;0.10;0.10;;;;;;;;;;6226684;22;20629;-90
2022/08/28 07:56:50;;;;;;;0.10;0.10;;;;;;;;;;6225914;22;20020;-91
2022/08/28 07:59:16;;;;;;;0.10;0.10;;;;;;;;;;6226436;22;20058;-91
2022/08/28 08:01:45;;;;;;;0.10;0.10;;;;;;;;;;6226614;22;20016;-92
2022/08/28 08:04:12;;;;;;;0.10;0.10;;;;;;;;;;6223746;22;20069;-92
2022/08/28 08:06:39;;;;;;;0.10;0.10;;;;;;;;;;6224940;22;20016;-92
2022/08/28 08:09:06;;;;;;;0.10;0.10;;;;;;;;;;6225888;22;20106;-91
2022/08/28 08:11:32;;;;;;;0.00;0.00;;;;;;;;;;6250392;22;20022;-91
2022/08/28 08:14:04;;;;;;;0.10;0.10;;;;;;;;;;6225388;22;20107;-91
2022/08/28 08:16:32;;;;;;;0.10;0.10;;;;;;;;;;6225239;22;20023;-91
2022/08/28 08:18:58;;;;;;;0.10;0.10;;;;;;;;;;6225048;22;20042;-91
2022/08/28 08:21:25;;;;;;;0.00;0.00;;;;;;;;;;6250662;22;20026;-91
2022/08/28 08:23:51;;;;;;;0.10;0.10;;;;;;;;;;6250496;22;20008;-91
2022/08/28 08:26:18;;;;;;;0.10;0.10;;;;;;;;;;6225006;22;20442;-92
2022/08/28 08:28:45;;;;;;;0.13;0.13;;;;;;;;;;6225549;22;20012;-92
2022/08/28 08:31:12;;;;;;;0.10;0.10;;;;;;;;;;6225252;22;20020;-94
2022/08/28 08:33:41;;;;;;;0.10;0.10;;;;;;;;;;6224781;22;20021;-91
2022/08/28 08:36:10;;;;;;;0.08;0.08;;;;;;;;;;6224315;22;20022;-92
2022/08/28 08:38:37;;;;;;;0.00;0.00;;;;;;;;;;6225078;22;20051;-93
2022/08/28 08:41:24;;;;;;;0.10;0.10;;;;;;;;;;6225096;22;20069;-92
2022/08/28 08:43:56;;;;;;;0.10;0.10;;;;;;;;;;6250476;22;20012;-92
2022/08/28 08:46:26;;;;;;;0.10;0.10;;;;;;;;;;6224620;22;20016;-92
2022/08/28 08:49:07;;;;;;;0.10;0.10;;;;;;;;;;6224871;22;20015;-92
2022/08/28 08:51:41;;;;;;;0.10;0.10;;;;;;;;;;6224647;22;20392;-91
2022/08/28 08:54:09;;;;;;;0.00;0.00;;;;;;;;;;6225167;22;20020;-91
2022/08/28 08:56:38;;;;;;;0.10;0.10;;;;;;;;;;6224592;22;20020;-92
2022/08/28 08:59:04;;;;;;;0.10;0.10;;;;;;;;;;6223495;22;20023;-94
2022/08/28 09:01:35;;;;;;;0.08;0.08;;;;;;;;;;6224559;22;20106;-92
2022/08/28 09:04:11;;;;;;;0.00;0.00;;;;;;;;;;6225591;22;20016;-93
2022/08/28 09:06:43;;;;;;;0.00;0.00;;;;;;;;;;6224943;22;20016;-92
2022/08/28 09:09:35;;;;;;;0.05;0.05;;;;;;;;;;6250084;22;20504;-90
2022/08/28 09:12:06;;;;;;;0.10;0.10;;;;;;;;;;6225058;22;20102;-90
2022/08/28 09:14:35;;;;;;;0.10;0.10;;;;;;;;;;6224997;22;20019;-89
2022/08/28 09:17:02;;;;;;;0.00;0.00;;;;;;;;;;6224594;22;20073;-89
2022/08/28 09:19:31;;;;;;;0.20;0.20;;;;;;;;;;6224741;22;20016;-93
2022/08/28 09:21:56;;;;;;;0.10;0.10;;;;;;;;;;6224809;22;20122;-91
2022/08/28 09:24:30;;;;;;;0.10;0.10;;;;;;;;;;6225069;22;20050;-90
2022/08/28 09:27:02;;;;;;;0.20;0.20;;;;;;;;;;6225035;22;20016;-90
2022/08/28 09:29:41;;;;;;;0.10;0.10;;;;;;;;;;6224878;22;20012;-90
2022/08/28 09:32:16;;;;;;;0.08;0.08;;;;;;;;;;6225095;22;20346;-91
2022/08/28 09:34:58;;;;;;;0.20;0.20;;;;;;;;;;6224543;22;20039;-89
2022/08/28 09:37:35;;;;;;;0.00;0.00;;;;;;;;;;6224054;22;20011;-89
2022/08/28 09:40:20;;;;;;;0.10;0.10;;;;;;;;;;6224723;22;20012;-90
2022/08/28 09:43:27;;;;;;;0.00;0.00;;;;;;;;;;6223308;22;20011;-90
2022/08/28 09:45:53;;;;;;;0.10;0.10;;;;;;;;;;6221993;22;20016;-90
2022/08/28 09:48:23;;;;;;;0.10;0.10;;;;;;;;;;6224643;22;20393;-90
2022/08/28 09:51:02;;;;;;;0.10;0.10;;;;;;;;;;6225101;22;20019;-92
2022/08/28 09:53:29;;;;;;;0.00;0.00;;;;;;;;;;6225267;22;20055;-91
2022/08/28 09:56:01;;;;;;;0.00;0.00;;;;;;;;;;6224226;22;20050;-91
2022/08/28 09:58:42;;;;;;;0.00;0.00;;;;;;;;;;6224873;22;20385;-92
2022/08/28 10:01:26;;;;;;;0.00;0.00;;;;;;;;;;6225381;22;20102;-91
2022/08/28 10:04:12;;;;;;;0.00;0.00;;;;;;;;;;6226753;22;20012;-94
2022/08/28 10:06:40;;;;;;;0.10;0.10;;;;;;;;;;6226486;22;20258;-91
2022/08/28 10:09:13;;;;;;;0.10;0.10;;;;;;;;;;6226963;22;20022;-92
2022/08/28 10:11:59;;;;;;;0.10;0.10;;;;;;;;;;6226776;22;20020;-92
2022/08/28 10:14:33;;;;;;;0.10;0.10;;;;;;;;;;6226971;22;20027;-93
2022/08/28 10:17:11;;;;;;;0.05;0.05;;;;;;;;;;6226412;22;20019;-91
2022/08/28 10:19:49;;;;;;;0.10;0.10;;;;;;;;;;6226010;22;20019;-91
2022/08/28 10:22:34;;;;;;;0.08;0.08;;;;;;;;;;6225288;22;20011;-92
2022/08/28 10:25:24;;;;;;;0.00;0.00;;;;;;;;;;6226857;22;20098;-93
2022/08/28 10:27:59;;;;;;;0.00;0.00;;;;;;;;;;6158679;22;20026;-91
2022/08/28 10:30:25;;;;;;;0.00;0.00;;;;;;;;;;6226526;22;20108;-91
2022/08/28 10:32:54;;;;;;;0.10;0.10;;;;;;;;;;6226469;22;20015;-91
2022/08/28 10:35:32;;;;;;;0.15;0.15;;;;;;;;;;6226089;22;20037;-91
2022/08/28 10:38:01;;;;;;;0.10;0.10;;;;;;;;;;6226512;22;20453;-91
2022/08/28 10:40:35;;;;;;;0.08;0.08;;;;;;;;;;6226548;22;20012;-90
2022/08/28 10:43:07;;;;;;;0.07;0.07;;;;;;;;;;6226411;22;20125;-90
2022/08/28 10:45:34;;;;;;;0.17;0.17;;;;;;;;;;6226279;22;20022;-92
2022/08/28 10:48:20;;;;;;;0.10;0.10;;;;;;;;;;6226568;22;20098;-91
2022/08/28 10:50:57;;;;;;;0.10;0.10;;;;;;;;;;6226682;22;20323;-91
2022/08/28 10:53:26;;;;;;;0.10;0.10;;;;;;;;;;6224710;22;20026;-91
2022/08/28 10:56:13;;;;;;;0.00;0.00;;;;;;;;;;6225503;22;20354;-92
2022/08/28 10:58:39;;;;;;;0.00;0.00;;;;;;;;;;6226331;22;20016;-89
2022/08/28 11:01:08;;;;;;;0.00;0.00;;;;;;;;;;6226172;22;20549;-87
2022/08/28 11:03:42;;;;;;;0.05;0.05;;;;;;;;;;6224819;22;20016;-93
2022/08/28 11:06:29;;;;;;;0.00;0.00;;;;;;;;;;6226144;22;20012;-94
2022/08/28 11:08:59;;;;;;;0.08;0.08;;;;;;;;;;6226983;22;20012;-95
2022/08/28 11:11:51;;;;;;;0.08;0.08;;;;;;;;;;6226689;22;20150;-92
2022/08/28 11:14:23;;;;;;;0.05;0.05;;;;;;;;;;6219869;22;20019;-92
2022/08/28 11:16:50;;;;;;;0.10;0.10;;;;;;;;;;6226139;22;20030;-91
2022/08/28 11:19:16;;;;;;;0.10;0.10;;;;;;;;;;6225927;22;20026;-92
2022/08/28 11:22:01;;;;;;;0.10;0.10;;;;;;;;;;6226624;22;20038;-94
2022/08/28 11:24:27;;;;;;;0.00;0.00;;;;;;;;;;6225744;22;20445;-93
2022/08/28 11:27:00;;;;;;;0.10;0.10;;;;;;;;;;6224658;22;20016;-94
2022/08/28 11:30:02;;;;;;;0.10;0.10;;;;;;;;;;6225993;22;20022;-92
2022/08/28 11:32:28;;;;;;;0.10;0.10;;;;;;;;;;6074998;23;20408;-93
2022/08/28 11:34:58;;;;;;;0.10;0.10;;;;;;;;;;6196621;22;20035;-93
2022/08/28 11:37:42;;;;;;;0.05;0.05;;;;;;;;;;6223439;22;20070;-94
2022/08/28 11:40:17;;;;;;;0.10;0.10;;;;;;;;;;6251490;22;20015;-91
2022/08/28 11:42:47;;;;;;;0.05;0.05;;;;;;;;;;6225968;22;20061;-93
2022/08/28 11:45:39;;;;;;;0.10;0.10;;;;;;;;;;6226076;22;20066;-93
2022/08/28 11:48:05;;;;;;;0.10;0.10;;;;;;;;;;6225363;22;20392;-93
2022/08/28 11:50:50;;;;;;;0.10;0.10;;;;;;;;;;6225510;22;20016;-91
2022/08/28 11:53:34;;;;;;;0.00;0.00;;;;;;;;;;6225733;22;20074;-92
2022/08/28 11:56:30;;;;;;;0.03;0.03;;;;;;;;;;6225164;22;20341;-94
2022/08/28 11:59:00;;;;;;;0.00;0.00;;;;;;;;;;6226143;22;20020;-94
2022/08/28 12:01:28;;;;;;;0.10;0.10;;;;;;;;;;6225839;22;20346;-91
2022/08/28 12:03:57;;;;;;;0.00;0.00;;;;;;;;;;6225782;22;20149;-92
2022/08/28 12:06:52;;;;;;;0.10;0.10;;;;;;;;;;6225018;22;20015;-93
2022/08/28 12:09:37;;;;;;;0.00;0.00;;;;;;;;;;6226433;22;20012;-91
2022/08/28 12:12:09;;;;;;;0.00;0.00;;;;;;;;;;6225988;22;20341;-93
2022/08/28 12:14:35;;;;;;;0.00;0.00;;;;;;;;;;6225816;22;20022;-91
2022/08/28 12:17:21;;;;;;;0.00;0.00;;;;;;;;;;6225364;22;20019;-92
2022/08/28 12:19:47;;;;;;;;;;;;;;;;;;6225898;22;20015;-92
2022/08/28 12:22:14;;;;;;;0.00;0.00;;;;;;;;;;6225905;22;19969;-92
2022/08/28 12:25:01;;;;;;;0.10;0.10;;;;;;;;;;6225768;22;20077;-91
2022/08/28 12:27:29;;;;;;;0.10;0.10;;;;;;;;;;6224436;22;20019;-91
2022/08/28 12:30:08;;;;;;;0.00;0.00;;;;;;;;;;6225522;22;20472;-94
2022/08/28 12:32:49;;;;;;;0.10;0.10;;;;;;;;;;6225766;22;20015;-94
2022/08/28 12:35:17;;;;;;;0.10;0.10;;;;;;;;;;6225339;22;20016;-93
2022/08/28 12:37:56;;;;;;;0.10;0.10;;;;;;;;;;6224978;22;20015;-94
2022/08/28 12:40:32;;;;;;;0.00;0.00;;;;;;;;;;6225716;22;20374;-96
2022/08/28 12:43:00;;;;;;;0.00;0.00;;;;;;;;;;6225801;22;20065;-95
2022/08/28 12:45:26;;;;;;;0.00;0.00;;;;;;;;;;6225408;22;20452;-93
2022/08/28 12:47:54;;;;;;;0.00;0.00;;;;;;;;;;6225317;22;20012;-93
2022/08/28 12:50:32;;;;;;;0.05;0.05;;;;;;;;;;6225943;22;20019;-94
2022/08/28 12:53:00;;;;;;;0.10;0.10;;;;;;;;;;6225751;22;20015;-91
2022/08/28 12:55:26;;;;;;;0.10;0.10;;;;;;;;;;6224675;22;20026;-93
2022/08/28 12:57:53;;;;;;;0.10;0.10;;;;;;;;;;6225434;22;20107;-94
2022/08/28 13:00:23;;;;;;;0.00;0.00;;;;;;;;;;6225290;22;20022;-92
2022/08/28 13:03:00;;;;;;;0.00;0.00;;;;;;;;;;6224929;22;20051;-94
2022/08/28 13:05:42;;;;;;;0.00;0.00;;;;;;;;;;6224634;22;20019;-93
2022/08/28 13:08:20;;;;;;;0.00;0.00;;;;;;;;;;6225652;22;20016;-93
2022/08/28 13:10:47;;;;;;;0.10;0.10;;;;;;;;;;6225395;22;20015;-91
2022/08/28 13:13:29;;;;;;;0.00;0.00;;;;;;;;;;6224918;22;20026;-93
2022/08/28 13:15:55;;;;;;;0.00;0.00;;;;;;;;;;6224256;22;20019;-95
2022/08/28 13:18:38;;;;;;;0.00;0.00;;;;;;;;;;6225168;22;20026;-95
2022/08/28 13:21:22;;;;;;;0.10;0.10;;;;;;;;;;6225522;22;20026;-94
2022/08/28 13:23:53;;;;;;;0.00;0.00;;;;;;;;;;6225392;22;20019;-93
2022/08/28 13:26:25;;;;;;;0.10;0.10;;;;;;;;;;6225387;22;20389;-94
2022/08/28 13:28:51;;;;;;;0.10;0.10;;;;;;;;;;6225511;22;20433;-94
2022/08/28 13:31:34;;;;;;;0.10;0.10;;;;;;;;;;6225289;22;20090;-94
2022/08/28 13:34:20;;;;;;;0.10;0.10;;;;;;;;;;6224877;22;20023;-94
2022/08/28 13:36:51;;;;;;;0.10;0.10;;;;;;;;;;6224930;22;20023;-93
2022/08/28 13:39:18;;;;;;;0.08;0.08;;;;;;;;;;6224729;22;20157;-92
2022/08/28 13:41:49;;;;;;;0.10;0.10;;;;;;;;;;6224718;22;20016;-91
2022/08/28 13:44:47;;;;;;;0.10;0.10;;;;;;;;;;6224734;22;20016;-90
2022/08/28 13:47:14;;;;;;;0.00;0.00;;;;;;;;;;6224272;22;20015;-91
2022/08/28 13:49:41;;;;;;;0.00;0.00;;;;;;;;;;6224636;22;20022;-91
2022/08/28 13:52:08;;;;;;;0.10;0.10;;;;;;;;;;6224496;22;20446;-91
2022/08/28 13:54:34;;;;;;;0.03;0.03;;;;;;;;;;6224581;22;20019;-92
2022/08/28 13:57:00;;;;;;;0.10;0.10;;;;;;;;;;6224281;22;20023;-92
2022/08/28 13:59:27;;;;;;;0.10;0.10;;;;;;;;;;6224892;22;20388;-90
2022/08/28 14:04:40;;;;;;;0.00;0.00;;;;;;;;;;6250245;22;20019;-92
2022/08/28 14:07:06;;;;;;;0.10;0.10;;;;;;;;;;6224322;22;20020;-90
2022/08/28 14:09:33;;;;;;;0.00;0.00;;;;;;;;;;6249740;22;20016;-92
2022/08/28 14:12:21;;;;;;;0.08;0.08;;;;;;;;;;6224726;22;20019;-90
2022/08/28 14:14:47;;;;;;;0.05;0.05;;;;;;;;;;6225041;22;20011;-91
2022/08/28 14:17:14;;;;;;;0.10;0.10;;;;;;;;;;6223923;22;20074;-92
2022/08/28 14:19:44;;;;;;;4.47;1.17;;;;;;;;;;6224422;22;20026;-93
2022/08/28 14:22:10;;;;;;;0.00;0.00;;;;;;;;;;6224739;22;20024;-92
2022/08/28 14:24:49;;;;;;;0.17;0.17;;;;;;;;;;6225202;22;20498;-95
2022/08/28 14:27:16;;;;;;;0.10;0.10;;;;;;;;;;6224139;22;20019;-93
2022/08/28 14:29:42;;;;;;;0.10;0.10;;;;;;;;;;6224670;22;20026;-91
2022/08/28 14:32:08;;;;;;;0.00;0.00;;;;;;;;;;6224366;22;20069;-92
2022/08/28 14:34:34;;;;;;;0.10;0.10;;;;;;;;;;6224509;22;20456;-93
2022/08/28 14:37:01;;;;;;;0.00;0.00;;;;;;;;;;6223920;22;20123;-92
2022/08/28 14:39:36;;;;;;;0.10;0.10;;;;;;;;;;6224512;22;20094;-92
2022/08/28 14:42:03;;;;;;;0.10;0.10;;;;;;;;;;6224759;22;20043;-89
2022/08/28 14:44:36;;;;;;;0.10;0.10;;;;;;;;;;6224275;22;20094;-92
2022/08/28 14:47:03;;;;;;;0.10;0.10;;;;;;;;;;6223691;22;20051;-91
2022/08/28 14:49:29;;;;;;;0.10;0.10;;;;;;;;;;6225386;22;20063;-91
2022/08/28 14:51:56;;;;;;;0.00;0.00;;;;;;;;;;6226151;22;20026;-90
2022/08/28 14:54:23;;;;;;;0.10;0.10;;;;;;;;;;6226222;22;20422;-91
2022/08/28 14:56:53;;;;;;;0.00;0.00;;;;;;;;;;6225781;22;20135;-90
2022/08/28 14:59:27;;;;;;;0.00;0.00;;;;;;;;;;6226351;22;20030;-92
2022/08/28 15:01:57;;;;;;;0.00;0.00;;;;;;;;;;6225867;22;20015;-91
2022/08/28 15:04:24;;;;;;;0.00;0.00;;;;;;;;;;6226333;22;20022;-91